sensor_id;sensor_type;location;lat;lon;timestamp;temperature;humidity
55121;DHT22;41019;48.512;9.036;2023-05-10T00:00:35;15.40;99.90
55121;DHT22;41019;48.512;9.036;2023-05-10T00:03:01;15.30;99.90
55121;DHT22;41019;48.512;9.036;2023-05-10T00:05:27;15.30;99.90
55121;DHT22;41019;48.512;9.036;2023-05-10T00:07:52;15.30;99.90
55121;DHT22;41019;48.512;9.036;2023-05-10T00:10:18;15.20;99.90
55121;DHT22;41019;48.512;9.036;2023-05-10T00:12:44;15.20;99.90
55121;DHT22;41019;48.512;9.036;2023-05-10T00:15:10;15.20;99.90
55121;DHT22;41019;48.512;9.036;2023-05-10T00:17:36;15.20;99.90
55121;DHT22;41019;48.512;9.036;2023-05-10T00:20:03;15.20;99.90
55121;DHT22;41019;48.512;9.036;2023-05-10T00:22:30;15.20;99.90
55121;DHT22;41019;48.512;9.036;2023-05-10T00:24:57;15.20;99.90
55121;DHT22;41019;48.512;9.036;2023-05-10T00:27:23;15.20;99.90
55121;DHT22;41019;48.512;9.036;2023-05-10T00:29:49;15.10;99.90
55121;DHT22;41019;48.512;9.036;2023-05-10T00:32:15;15.10;99.90
55121;DHT22;41019;48.512;9.036;2023-05-10T00:34:42;15.10;99.90
55121;DHT22;41019;48.512;9.036;2023-05-10T00:37:08;15.00;99.90
55121;DHT22;41019;48.512;9.036;2023-05-10T00:39:34;15.00;99.90
55121;DHT22;41019;48.512;9.036;2023-05-10T00:42:00;15.00;99.90
55121;DHT22;41019;48.512;9.036;2023-05-10T00:44:27;14.90;99.90
55121;DHT22;41019;48.512;9.036;2023-05-10T00:46:53;14.90;99.90
55121;DHT22;41019;48.512;9.036;2023-05-10T00:49:19;14.90;99.90
55121;DHT22;41019;48.512;9.036;2023-05-10T00:51:46;14.90;99.90
55121;DHT22;41019;48.512;9.036;2023-05-10T00:54:14;14.90;99.90
55121;DHT22;41019;48.512;9.036;2023-05-10T00:56:41;14.90;99.90
55121;DHT22;41019;48.512;9.036;2023-05-10T00:59:08;14.90;99.90
55121;DHT22;41019;48.512;9.036;2023-05-10T01:01:36;14.80;99.90
55121;DHT22;41019;48.512;9.036;2023-05-10T01:04:01;14.80;99.90
55121;DHT22;41019;48.512;9.036;2023-05-10T01:06:28;14.80;99.90
55121;DHT22;41019;48.512;9.036;2023-05-10T01:08:56;14.80;99.90
55121;DHT22;41019;48.512;9.036;2023-05-10T01:11:21;14.80;99.90
55121;DHT22;41019;48.512;9.036;2023-05-10T01:13:54;14.70;99.90
55121;DHT22;41019;48.512;9.036;2023-05-10T01:16:22;14.80;99.90
55121;DHT22;41019;48.512;9.036;2023-05-10T01:18:49;14.80;99.90
55121;DHT22;41019;48.512;9.036;2023-05-10T01:21:48;14.70;99.90
55121;DHT22;41019;48.512;9.036;2023-05-10T01:24:42;14.70;99.90
55121;DHT22;41019;48.512;9.036;2023-05-10T01:33:17;14.70;99.90
55121;DHT22;41019;48.512;9.036;2023-05-10T01:39:04;14.60;99.90
55121;DHT22;41019;48.512;9.036;2023-05-10T01:41:55;14.60;99.90
55121;DHT22;41019;48.512;9.036;2023-05-10T01:44:35;14.60;99.90
55121;DHT22;41019;48.512;9.036;2023-05-10T01:47:58;14.60;99.90
55121;DHT22;41019;48.512;9.036;2023-05-10T01:50:15;14.60;99.90
55121;DHT22;41019;48.512;9.036;2023-05-10T01:52:42;14.60;99.90
55121;DHT22;41019;48.512;9.036;2023-05-10T01:55:15;14.50;99.90
55121;DHT22;41019;48.512;9.036;2023-05-10T01:57:44;14.50;99.90
55121;DHT22;41019;48.512;9.036;2023-05-10T02:00:13;14.50;99.90
55121;DHT22;41019;48.512;9.036;2023-05-10T02:02:46;14.50;99.90
55121;DHT22;41019;48.512;9.036;2023-05-10T02:05:16;14.40;99.90
55121;DHT22;41019;48.512;9.036;2023-05-10T02:07:44;14.40;99.90
55121;DHT22;41019;48.512;9.036;2023-05-10T02:10:11;14.40;99.90
55121;DHT22;41019;48.512;9.036;2023-05-10T02:12:44;14.40;99.90
55121;DHT22;41019;48.512;9.036;2023-05-10T02:15:16;14.40;99.90
55121;DHT22;41019;48.512;9.036;2023-05-10T02:17:46;14.40;99.90
55121;DHT22;41019;48.512;9.036;2023-05-10T02:20:15;14.40;99.90
55121;DHT22;41019;48.512;9.036;2023-05-10T02:22:43;14.40;99.90
55121;DHT22;41019;48.512;9.036;2023-05-10T02:25:13;14.30;99.90
55121;DHT22;41019;48.512;9.036;2023-05-10T02:27:42;14.30;99.90
55121;DHT22;41019;48.512;9.036;2023-05-10T02:30:11;14.30;99.90
55121;DHT22;41019;48.512;9.036;2023-05-10T02:32:38;14.20;99.90
55121;DHT22;41019;48.512;9.036;2023-05-10T02:35:06;14.30;99.90
55121;DHT22;41019;48.512;9.036;2023-05-10T02:37:35;14.30;99.90
55121;DHT22;41019;48.512;9.036;2023-05-10T02:40:05;14.20;99.90
55121;DHT22;41019;48.512;9.036;2023-05-10T02:42:36;14.20;99.90
55121;DHT22;41019;48.512;9.036;2023-05-10T02:45:09;14.20;99.90
55121;DHT22;41019;48.512;9.036;2023-05-10T02:47:37;14.20;99.90
55121;DHT22;41019;48.512;9.036;2023-05-10T02:50:04;14.20;99.90
55121;DHT22;41019;48.512;9.036;2023-05-10T02:52:46;14.10;99.90
55121;DHT22;41019;48.512;9.036;2023-05-10T02:55:15;14.10;99.90
55121;DHT22;41019;48.512;9.036;2023-05-10T02:57:55;14.10;99.90
55121;DHT22;41019;48.512;9.036;2023-05-10T03:00:22;14.10;99.90
55121;DHT22;41019;48.512;9.036;2023-05-10T03:02:49;14.10;99.90
55121;DHT22;41019;48.512;9.036;2023-05-10T03:05:15;14.00;99.90
55121;DHT22;41019;48.512;9.036;2023-05-10T03:07:42;14.00;99.90
55121;DHT22;41019;48.512;9.036;2023-05-10T03:10:09;14.00;99.90
55121;DHT22;41019;48.512;9.036;2023-05-10T03:18:07;14.00;99.90
55121;DHT22;41019;48.512;9.036;2023-05-10T03:20:35;14.00;99.90
55121;DHT22;41019;48.512;9.036;2023-05-10T03:23:30;14.00;99.90
55121;DHT22;41019;48.512;9.036;2023-05-10T03:26:00;14.00;99.90
55121;DHT22;41019;48.512;9.036;2023-05-10T03:28:27;14.00;99.90
55121;DHT22;41019;48.512;9.036;2023-05-10T03:30:55;14.00;99.90
55121;DHT22;41019;48.512;9.036;2023-05-10T03:33:22;13.90;99.90
55121;DHT22;41019;48.512;9.036;2023-05-10T03:35:48;14.00;99.90
55121;DHT22;41019;48.512;9.036;2023-05-10T03:38:15;14.00;99.90
55121;DHT22;41019;48.512;9.036;2023-05-10T03:40:41;14.00;99.90
55121;DHT22;41019;48.512;9.036;2023-05-10T03:43:07;14.00;99.90
55121;DHT22;41019;48.512;9.036;2023-05-10T03:45:33;14.00;99.90
55121;DHT22;41019;48.512;9.036;2023-05-10T03:47:59;13.90;99.90
55121;DHT22;41019;48.512;9.036;2023-05-10T03:50:25;14.00;99.90
55121;DHT22;41019;48.512;9.036;2023-05-10T03:52:51;13.90;99.90
55121;DHT22;41019;48.512;9.036;2023-05-10T03:55:17;13.90;99.90
55121;DHT22;41019;48.512;9.036;2023-05-10T03:57:43;13.90;99.90
55121;DHT22;41019;48.512;9.036;2023-05-10T04:00:10;13.90;99.90
55121;DHT22;41019;48.512;9.036;2023-05-10T04:02:41;13.90;99.90
55121;DHT22;41019;48.512;9.036;2023-05-10T04:05:11;13.90;99.90
55121;DHT22;41019;48.512;9.036;2023-05-10T04:07:37;14.00;99.90
55121;DHT22;41019;48.512;9.036;2023-05-10T04:10:03;14.00;99.90
55121;DHT22;41019;48.512;9.036;2023-05-10T04:12:29;14.00;99.90
55121;DHT22;41019;48.512;9.036;2023-05-10T04:14:54;14.00;99.90
55121;DHT22;41019;48.512;9.036;2023-05-10T04:17:20;14.00;99.90
55121;DHT22;41019;48.512;9.036;2023-05-10T04:19:46;14.00;99.90
55121;DHT22;41019;48.512;9.036;2023-05-10T04:22:11;14.00;99.90
55121;DHT22;41019;48.512;9.036;2023-05-10T04:24:37;14.00;99.90
55121;DHT22;41019;48.512;9.036;2023-05-10T04:27:03;14.00;99.90
55121;DHT22;41019;48.512;9.036;2023-05-10T04:29:29;14.00;99.90
55121;DHT22;41019;48.512;9.036;2023-05-10T04:31:55;14.00;99.90
55121;DHT22;41019;48.512;9.036;2023-05-10T04:34:22;14.00;99.90
55121;DHT22;41019;48.512;9.036;2023-05-10T04:36:47;14.00;99.90
55121;DHT22;41019;48.512;9.036;2023-05-10T04:39:13;14.00;99.90
55121;DHT22;41019;48.512;9.036;2023-05-10T04:41:39;14.00;99.90
55121;DHT22;41019;48.512;9.036;2023-05-10T04:44:05;14.00;99.90
55121;DHT22;41019;48.512;9.036;2023-05-10T04:46:30;14.00;99.90
55121;DHT22;41019;48.512;9.036;2023-05-10T04:48:56;14.00;99.90
55121;DHT22;41019;48.512;9.036;2023-05-10T04:51:22;14.00;99.90
55121;DHT22;41019;48.512;9.036;2023-05-10T04:53:48;14.00;99.90
55121;DHT22;41019;48.512;9.036;2023-05-10T04:56:14;14.00;99.90
55121;DHT22;41019;48.512;9.036;2023-05-10T04:58:39;14.10;99.90
55121;DHT22;41019;48.512;9.036;2023-05-10T05:01:09;14.10;99.90
55121;DHT22;41019;48.512;9.036;2023-05-10T05:03:36;14.10;99.90
55121;DHT22;41019;48.512;9.036;2023-05-10T05:06:02;14.10;99.90
55121;DHT22;41019;48.512;9.036;2023-05-10T05:08:28;14.10;99.90
55121;DHT22;41019;48.512;9.036;2023-05-10T05:10:54;14.10;99.90
55121;DHT22;41019;48.512;9.036;2023-05-10T05:13:20;14.10;99.90
55121;DHT22;41019;48.512;9.036;2023-05-10T05:15:46;14.20;99.90
55121;DHT22;41019;48.512;9.036;2023-05-10T05:18:12;14.20;99.90
55121;DHT22;41019;48.512;9.036;2023-05-10T05:20:37;14.20;99.90
55121;DHT22;41019;48.512;9.036;2023-05-10T05:23:03;14.20;99.90
55121;DHT22;41019;48.512;9.036;2023-05-10T05:25:29;14.20;99.90
55121;DHT22;41019;48.512;9.036;2023-05-10T05:27:55;14.30;99.90
55121;DHT22;41019;48.512;9.036;2023-05-10T05:30:21;14.30;99.90
55121;DHT22;41019;48.512;9.036;2023-05-10T05:32:47;14.30;99.90
55121;DHT22;41019;48.512;9.036;2023-05-10T05:35:12;14.20;99.90
55121;DHT22;41019;48.512;9.036;2023-05-10T05:37:39;14.20;99.90
55121;DHT22;41019;48.512;9.036;2023-05-10T05:40:05;14.20;99.90
55121;DHT22;41019;48.512;9.036;2023-05-10T05:42:31;14.20;99.90
55121;DHT22;41019;48.512;9.036;2023-05-10T05:44:57;14.20;99.90
55121;DHT22;41019;48.512;9.036;2023-05-10T05:47:23;14.20;99.90
55121;DHT22;41019;48.512;9.036;2023-05-10T05:49:49;14.20;99.90
55121;DHT22;41019;48.512;9.036;2023-05-10T05:52:15;14.20;99.90
55121;DHT22;41019;48.512;9.036;2023-05-10T05:54:41;14.20;99.90
55121;DHT22;41019;48.512;9.036;2023-05-10T05:57:07;14.20;99.90
55121;DHT22;41019;48.512;9.036;2023-05-10T05:59:33;14.20;99.90
55121;DHT22;41019;48.512;9.036;2023-05-10T06:01:58;14.20;99.90
55121;DHT22;41019;48.512;9.036;2023-05-10T06:04:24;14.30;99.90
55121;DHT22;41019;48.512;9.036;2023-05-10T06:06:50;14.30;99.90
55121;DHT22;41019;48.512;9.036;2023-05-10T06:09:16;14.30;99.90
55121;DHT22;41019;48.512;9.036;2023-05-10T06:11:41;14.30;99.90
55121;DHT22;41019;48.512;9.036;2023-05-10T06:14:07;14.40;99.90
55121;DHT22;41019;48.512;9.036;2023-05-10T06:16:36;14.50;99.90
55121;DHT22;41019;48.512;9.036;2023-05-10T06:19:02;14.50;99.90
55121;DHT22;41019;48.512;9.036;2023-05-10T06:21:28;14.60;99.90
55121;DHT22;41019;48.512;9.036;2023-05-10T06:23:54;14.70;99.90
55121;DHT22;41019;48.512;9.036;2023-05-10T06:26:20;14.80;99.90
55121;DHT22;41019;48.512;9.036;2023-05-10T06:28:46;14.80;99.90
55121;DHT22;41019;48.512;9.036;2023-05-10T06:31:12;14.90;99.90
55121;DHT22;41019;48.512;9.036;2023-05-10T06:33:38;15.00;99.90
55121;DHT22;41019;48.512;9.036;2023-05-10T06:36:04;15.10;99.90
55121;DHT22;41019;48.512;9.036;2023-05-10T06:38:29;15.10;99.90
55121;DHT22;41019;48.512;9.036;2023-05-10T06:40:55;15.20;99.90
55121;DHT22;41019;48.512;9.036;2023-05-10T06:43:21;15.20;99.90
55121;DHT22;41019;48.512;9.036;2023-05-10T06:45:50;15.30;99.90
55121;DHT22;41019;48.512;9.036;2023-05-10T06:48:16;15.30;99.90
55121;DHT22;41019;48.512;9.036;2023-05-10T06:50:42;15.40;99.90
55121;DHT22;41019;48.512;9.036;2023-05-10T06:53:08;15.40;99.90
55121;DHT22;41019;48.512;9.036;2023-05-10T06:55:33;15.40;99.90
55121;DHT22;41019;48.512;9.036;2023-05-10T06:57:59;15.40;99.90
55121;DHT22;41019;48.512;9.036;2023-05-10T07:00:25;15.30;99.90
55121;DHT22;41019;48.512;9.036;2023-05-10T07:02:51;15.30;99.90
55121;DHT22;41019;48.512;9.036;2023-05-10T07:05:17;15.30;99.90
55121;DHT22;41019;48.512;9.036;2023-05-10T07:07:43;15.30;99.90
55121;DHT22;41019;48.512;9.036;2023-05-10T07:10:09;15.30;99.90
55121;DHT22;41019;48.512;9.036;2023-05-10T07:12:35;15.30;99.90
55121;DHT22;41019;48.512;9.036;2023-05-10T07:15:01;15.40;99.90
55121;DHT22;41019;48.512;9.036;2023-05-10T07:17:27;15.30;99.60
55121;DHT22;41019;48.512;9.036;2023-05-10T07:19:53;15.30;99.80
55121;DHT22;41019;48.512;9.036;2023-05-10T07:22:19;15.30;99.90
55121;DHT22;41019;48.512;9.036;2023-05-10T07:24:45;15.30;99.90
55121;DHT22;41019;48.512;9.036;2023-05-10T07:27:10;15.30;99.90
55121;DHT22;41019;48.512;9.036;2023-05-10T07:29:36;15.30;99.90
55121;DHT22;41019;48.512;9.036;2023-05-10T07:32:02;15.30;99.90
55121;DHT22;41019;48.512;9.036;2023-05-10T07:34:28;15.40;99.90
55121;DHT22;41019;48.512;9.036;2023-05-10T07:37:00;15.40;99.90
55121;DHT22;41019;48.512;9.036;2023-05-10T07:39:27;15.50;99.90
55121;DHT22;41019;48.512;9.036;2023-05-10T07:41:54;15.50;99.90
55121;DHT22;41019;48.512;9.036;2023-05-10T07:44:20;15.60;99.90
55121;DHT22;41019;48.512;9.036;2023-05-10T07:46:46;15.70;99.80
55121;DHT22;41019;48.512;9.036;2023-05-10T07:49:13;15.70;99.90
55121;DHT22;41019;48.512;9.036;2023-05-10T07:51:39;15.70;99.90
55121;DHT22;41019;48.512;9.036;2023-05-10T07:54:05;15.80;99.90
55121;DHT22;41019;48.512;9.036;2023-05-10T07:56:32;15.80;99.90
55121;DHT22;41019;48.512;9.036;2023-05-10T07:58:59;15.80;99.80
55121;DHT22;41019;48.512;9.036;2023-05-10T08:01:26;15.90;99.60
55121;DHT22;41019;48.512;9.036;2023-05-10T08:03:55;16.00;99.40
55121;DHT22;41019;48.512;9.036;2023-05-10T08:06:22;16.10;99.70
55121;DHT22;41019;48.512;9.036;2023-05-10T08:08:48;16.20;99.30
55121;DHT22;41019;48.512;9.036;2023-05-10T08:11:19;16.30;99.20
55121;DHT22;41019;48.512;9.036;2023-05-10T08:13:47;16.40;98.70
55121;DHT22;41019;48.512;9.036;2023-05-10T08:16:13;16.50;98.80
55121;DHT22;41019;48.512;9.036;2023-05-10T08:18:40;16.60;98.80
55121;DHT22;41019;48.512;9.036;2023-05-10T08:21:06;16.70;98.60
55121;DHT22;41019;48.512;9.036;2023-05-10T08:23:32;16.80;98.30
55121;DHT22;41019;48.512;9.036;2023-05-10T08:25:59;17.00;97.50
55121;DHT22;41019;48.512;9.036;2023-05-10T08:28:25;17.10;97.50
55121;DHT22;41019;48.512;9.036;2023-05-10T08:30:51;17.20;97.30
55121;DHT22;41019;48.512;9.036;2023-05-10T08:33:18;17.30;97.30
55121;DHT22;41019;48.512;9.036;2023-05-10T08:35:44;17.40;96.50
55121;DHT22;41019;48.512;9.036;2023-05-10T08:38:10;17.50;96.70
55121;DHT22;41019;48.512;9.036;2023-05-10T08:40:43;17.60;96.40
55121;DHT22;41019;48.512;9.036;2023-05-10T08:43:13;17.60;95.00
55121;DHT22;41019;48.512;9.036;2023-05-10T08:45:44;17.70;95.60
55121;DHT22;41019;48.512;9.036;2023-05-10T08:48:14;17.70;95.10
55121;DHT22;41019;48.512;9.036;2023-05-10T08:50:42;17.80;94.30
55121;DHT22;41019;48.512;9.036;2023-05-10T08:53:13;17.80;95.10
55121;DHT22;41019;48.512;9.036;2023-05-10T08:55:40;17.80;94.70
55121;DHT22;41019;48.512;9.036;2023-05-10T08:58:09;17.80;95.10
55121;DHT22;41019;48.512;9.036;2023-05-10T09:00:35;17.80;94.70
55121;DHT22;41019;48.512;9.036;2023-05-10T09:03:04;17.80;96.10
55121;DHT22;41019;48.512;9.036;2023-05-10T09:05:30;17.90;94.30
55121;DHT22;41019;48.512;9.036;2023-05-10T09:07:56;17.90;93.70
55121;DHT22;41019;48.512;9.036;2023-05-10T09:10:23;18.00;93.50
55121;DHT22;41019;48.512;9.036;2023-05-10T09:12:53;18.10;93.40
55121;DHT22;41019;48.512;9.036;2023-05-10T09:15:19;18.20;93.60
55121;DHT22;41019;48.512;9.036;2023-05-10T09:17:46;18.30;92.50
55121;DHT22;41019;48.512;9.036;2023-05-10T09:20:13;18.30;92.20
55121;DHT22;41019;48.512;9.036;2023-05-10T09:22:39;18.30;91.70
55121;DHT22;41019;48.512;9.036;2023-05-10T09:25:10;18.40;92.50
55121;DHT22;41019;48.512;9.036;2023-05-10T09:27:38;18.50;91.60
55121;DHT22;41019;48.512;9.036;2023-05-10T09:30:06;18.60;91.30
55121;DHT22;41019;48.512;9.036;2023-05-10T09:32:40;18.80;92.30
55121;DHT22;41019;48.512;9.036;2023-05-10T09:35:12;18.90;91.10
55121;DHT22;41019;48.512;9.036;2023-05-10T09:37:43;19.10;91.20
55121;DHT22;41019;48.512;9.036;2023-05-10T09:40:17;19.20;90.50
55121;DHT22;41019;48.512;9.036;2023-05-10T09:42:55;19.20;91.70
55121;DHT22;41019;48.512;9.036;2023-05-10T09:45:24;19.30;89.30
55121;DHT22;41019;48.512;9.036;2023-05-10T09:47:51;19.30;88.00
55121;DHT22;41019;48.512;9.036;2023-05-10T09:50:19;19.30;90.10
55121;DHT22;41019;48.512;9.036;2023-05-10T09:52:47;19.20;90.00
55121;DHT22;41019;48.512;9.036;2023-05-10T09:55:14;19.10;90.60
55121;DHT22;41019;48.512;9.036;2023-05-10T09:57:41;19.10;90.00
55121;DHT22;41019;48.512;9.036;2023-05-10T10:00:08;19.10;90.30
55121;DHT22;41019;48.512;9.036;2023-05-10T10:02:41;19.00;91.00
55121;DHT22;41019;48.512;9.036;2023-05-10T10:05:07;18.70;91.60
55121;DHT22;41019;48.512;9.036;2023-05-10T10:07:34;18.50;91.30
55121;DHT22;41019;48.512;9.036;2023-05-10T10:10:01;18.40;91.30
55121;DHT22;41019;48.512;9.036;2023-05-10T10:12:28;18.20;91.70
55121;DHT22;41019;48.512;9.036;2023-05-10T10:14:55;18.10;92.60
55121;DHT22;41019;48.512;9.036;2023-05-10T10:17:21;18.10;93.10
55121;DHT22;41019;48.512;9.036;2023-05-10T10:19:48;18.10;92.90
55121;DHT22;41019;48.512;9.036;2023-05-10T10:22:14;18.10;92.90
55121;DHT22;41019;48.512;9.036;2023-05-10T10:24:41;18.10;93.00
55121;DHT22;41019;48.512;9.036;2023-05-10T10:35:34;18.50;92.00
55121;DHT22;41019;48.512;9.036;2023-05-10T10:38:00;18.60;92.00
55121;DHT22;41019;48.512;9.036;2023-05-10T10:42:52;18.90;90.60
55121;DHT22;41019;48.512;9.036;2023-05-10T10:45:20;19.00;90.70
55121;DHT22;41019;48.512;9.036;2023-05-10T10:47:47;19.20;90.70
55121;DHT22;41019;48.512;9.036;2023-05-10T10:50:13;19.30;90.50
55121;DHT22;41019;48.512;9.036;2023-05-10T10:52:40;19.40;90.00
55121;DHT22;41019;48.512;9.036;2023-05-10T11:02:51;18.80;85.70
55121;DHT22;41019;48.512;9.036;2023-05-10T11:05:24;18.50;87.00
55121;DHT22;41019;48.512;9.036;2023-05-10T11:07:52;18.20;88.10
55121;DHT22;41019;48.512;9.036;2023-05-10T11:10:20;18.00;87.30
55121;DHT22;41019;48.512;9.036;2023-05-10T11:13:02;17.80;87.70
55121;DHT22;41019;48.512;9.036;2023-05-10T11:15:36;17.70;88.80
55121;DHT22;41019;48.512;9.036;2023-05-10T11:20:43;17.50;88.10
55121;DHT22;41019;48.512;9.036;2023-05-10T11:23:14;17.50;87.90
55121;DHT22;41019;48.512;9.036;2023-05-10T11:25:49;17.40;86.60
55121;DHT22;41019;48.512;9.036;2023-05-10T11:28:17;17.30;86.10
55121;DHT22;41019;48.512;9.036;2023-05-10T11:30:45;17.10;88.00
55121;DHT22;41019;48.512;9.036;2023-05-10T11:33:18;17.00;87.70
55121;DHT22;41019;48.512;9.036;2023-05-10T11:35:45;16.90;88.10
55121;DHT22;41019;48.512;9.036;2023-05-10T11:38:12;16.80;90.60
55121;DHT22;41019;48.512;9.036;2023-05-10T11:40:39;16.70;90.30
55121;DHT22;41019;48.512;9.036;2023-05-10T11:43:05;16.70;90.50
55121;DHT22;41019;48.512;9.036;2023-05-10T11:45:33;16.60;90.30
55121;DHT22;41019;48.512;9.036;2023-05-10T11:48:00;16.60;90.40
55121;DHT22;41019;48.512;9.036;2023-05-10T11:50:26;16.60;90.20
55121;DHT22;41019;48.512;9.036;2023-05-10T11:52:53;16.60;90.80
55121;DHT22;41019;48.512;9.036;2023-05-10T11:55:20;16.60;90.00
55121;DHT22;41019;48.512;9.036;2023-05-10T11:57:46;16.70;90.60
55121;DHT22;41019;48.512;9.036;2023-05-10T12:00:13;16.80;90.40
55121;DHT22;41019;48.512;9.036;2023-05-10T12:02:41;17.00;89.60
55121;DHT22;41019;48.512;9.036;2023-05-10T12:05:08;17.20;88.50
55121;DHT22;41019;48.512;9.036;2023-05-10T12:07:34;17.40;88.30
55121;DHT22;41019;48.512;9.036;2023-05-10T12:10:10;17.50;88.00
55121;DHT22;41019;48.512;9.036;2023-05-10T12:12:39;17.60;88.70
55121;DHT22;41019;48.512;9.036;2023-05-10T12:15:16;17.70;89.00
55121;DHT22;41019;48.512;9.036;2023-05-10T12:17:44;17.70;88.50
55121;DHT22;41019;48.512;9.036;2023-05-10T12:20:18;17.70;89.30
55121;DHT22;41019;48.512;9.036;2023-05-10T12:22:46;17.70;90.10
55121;DHT22;41019;48.512;9.036;2023-05-10T12:25:12;17.70;90.80
55121;DHT22;41019;48.512;9.036;2023-05-10T12:27:38;17.70;90.80
55121;DHT22;41019;48.512;9.036;2023-05-10T12:30:05;17.60;90.80
55121;DHT22;41019;48.512;9.036;2023-05-10T12:32:41;17.50;91.90
55121;DHT22;41019;48.512;9.036;2023-05-10T12:35:07;17.50;91.80
55121;DHT22;41019;48.512;9.036;2023-05-10T12:37:34;17.50;92.50
55121;DHT22;41019;48.512;9.036;2023-05-10T12:40:09;17.50;92.80
55121;DHT22;41019;48.512;9.036;2023-05-10T12:42:36;17.50;92.30
55121;DHT22;41019;48.512;9.036;2023-05-10T12:45:06;17.50;92.00
55121;DHT22;41019;48.512;9.036;2023-05-10T12:47:33;17.50;91.50
55121;DHT22;41019;48.512;9.036;2023-05-10T12:50:01;17.60;91.50
55121;DHT22;41019;48.512;9.036;2023-05-10T12:52:28;17.50;92.70
55121;DHT22;41019;48.512;9.036;2023-05-10T12:54:54;17.70;92.60
55121;DHT22;41019;48.512;9.036;2023-05-10T12:57:21;17.70;91.20
55121;DHT22;41019;48.512;9.036;2023-05-10T12:59:47;17.70;91.20
55121;DHT22;41019;48.512;9.036;2023-05-10T13:02:13;17.80;91.50
55121;DHT22;41019;48.512;9.036;2023-05-10T13:04:40;17.80;91.20
55121;DHT22;41019;48.512;9.036;2023-05-10T13:07:07;17.90;90.80
55121;DHT22;41019;48.512;9.036;2023-05-10T13:09:33;17.90;92.10
55121;DHT22;41019;48.512;9.036;2023-05-10T13:11:59;18.00;90.90
55121;DHT22;41019;48.512;9.036;2023-05-10T13:14:26;18.10;91.40
55121;DHT22;41019;48.512;9.036;2023-05-10T13:16:52;18.20;90.60
55121;DHT22;41019;48.512;9.036;2023-05-10T13:19:18;18.30;90.10
55121;DHT22;41019;48.512;9.036;2023-05-10T13:21:44;18.40;89.30
55121;DHT22;41019;48.512;9.036;2023-05-10T13:24:10;18.40;89.00
55121;DHT22;41019;48.512;9.036;2023-05-10T13:26:36;18.50;89.70
55121;DHT22;41019;48.512;9.036;2023-05-10T13:29:03;18.60;89.30
55121;DHT22;41019;48.512;9.036;2023-05-10T13:31:29;18.70;87.50
55121;DHT22;41019;48.512;9.036;2023-05-10T13:33:55;18.70;88.30
55121;DHT22;41019;48.512;9.036;2023-05-10T13:36:21;18.80;88.50
55121;DHT22;41019;48.512;9.036;2023-05-10T13:38:48;18.80;87.50
55121;DHT22;41019;48.512;9.036;2023-05-10T13:41:14;18.90;87.80
55121;DHT22;41019;48.512;9.036;2023-05-10T13:43:40;18.90;85.80
55121;DHT22;41019;48.512;9.036;2023-05-10T13:46:05;18.90;86.50
55121;DHT22;41019;48.512;9.036;2023-05-10T13:48:31;18.80;84.80
55121;DHT22;41019;48.512;9.036;2023-05-10T13:50:57;18.80;84.80
55121;DHT22;41019;48.512;9.036;2023-05-10T13:53:23;18.80;85.30
55121;DHT22;41019;48.512;9.036;2023-05-10T13:55:49;18.80;86.10
55121;DHT22;41019;48.512;9.036;2023-05-10T13:58:15;18.70;84.70
55121;DHT22;41019;48.512;9.036;2023-05-10T14:00:40;18.70;84.20
55121;DHT22;41019;48.512;9.036;2023-05-10T14:03:06;18.80;84.40
55121;DHT22;41019;48.512;9.036;2023-05-10T14:05:34;18.70;82.90
55121;DHT22;41019;48.512;9.036;2023-05-10T14:08:00;18.80;85.10
55121;DHT22;41019;48.512;9.036;2023-05-10T14:10:26;18.80;84.70
55121;DHT22;41019;48.512;9.036;2023-05-10T14:12:52;18.80;83.30
55121;DHT22;41019;48.512;9.036;2023-05-10T14:15:18;18.90;84.00
55121;DHT22;41019;48.512;9.036;2023-05-10T14:17:44;18.90;83.00
55121;DHT22;41019;48.512;9.036;2023-05-10T14:20:10;18.90;82.50
55121;DHT22;41019;48.512;9.036;2023-05-10T14:22:37;18.90;83.70
55121;DHT22;41019;48.512;9.036;2023-05-10T14:25:03;18.90;83.40
55121;DHT22;41019;48.512;9.036;2023-05-10T14:27:28;18.80;82.70
55121;DHT22;41019;48.512;9.036;2023-05-10T14:29:54;18.80;83.00
55121;DHT22;41019;48.512;9.036;2023-05-10T14:32:20;18.80;83.70
55121;DHT22;41019;48.512;9.036;2023-05-10T14:34:46;18.80;83.90
55121;DHT22;41019;48.512;9.036;2023-05-10T14:37:13;18.80;85.30
55121;DHT22;41019;48.512;9.036;2023-05-10T14:39:40;18.80;84.80
55121;DHT22;41019;48.512;9.036;2023-05-10T14:42:06;18.90;83.70
55121;DHT22;41019;48.512;9.036;2023-05-10T14:44:31;18.90;83.20
55121;DHT22;41019;48.512;9.036;2023-05-10T14:46:58;18.90;82.30
55121;DHT22;41019;48.512;9.036;2023-05-10T14:49:23;18.90;82.90
55121;DHT22;41019;48.512;9.036;2023-05-10T14:51:51;18.90;84.30
55121;DHT22;41019;48.512;9.036;2023-05-10T14:54:17;18.90;84.00
55121;DHT22;41019;48.512;9.036;2023-05-10T14:56:43;18.90;83.40
55121;DHT22;41019;48.512;9.036;2023-05-10T14:59:10;19.00;84.00
55121;DHT22;41019;48.512;9.036;2023-05-10T15:01:36;19.00;82.60
55121;DHT22;41019;48.512;9.036;2023-05-10T15:04:04;19.10;82.80
55121;DHT22;41019;48.512;9.036;2023-05-10T15:06:35;19.10;82.90
55121;DHT22;41019;48.512;9.036;2023-05-10T15:09:02;19.10;82.20
55121;DHT22;41019;48.512;9.036;2023-05-10T15:11:29;19.10;81.20
55121;DHT22;41019;48.512;9.036;2023-05-10T15:13:55;19.00;80.60
55121;DHT22;41019;48.512;9.036;2023-05-10T15:16:21;19.00;81.60
55121;DHT22;41019;48.512;9.036;2023-05-10T15:18:47;19.00;82.80
55121;DHT22;41019;48.512;9.036;2023-05-10T15:21:13;19.10;82.20
55121;DHT22;41019;48.512;9.036;2023-05-10T15:23:39;19.00;81.90
55121;DHT22;41019;48.512;9.036;2023-05-10T15:26:05;19.00;81.80
55121;DHT22;41019;48.512;9.036;2023-05-10T15:28:31;18.90;82.00
55121;DHT22;41019;48.512;9.036;2023-05-10T15:30:57;18.90;82.00
55121;DHT22;41019;48.512;9.036;2023-05-10T15:33:23;18.90;80.40
55121;DHT22;41019;48.512;9.036;2023-05-10T15:35:49;18.90;82.30
55121;DHT22;41019;48.512;9.036;2023-05-10T15:38:15;18.90;82.40
55121;DHT22;41019;48.512;9.036;2023-05-10T15:40:40;18.90;81.00
55121;DHT22;41019;48.512;9.036;2023-05-10T15:43:07;18.80;81.00
55121;DHT22;41019;48.512;9.036;2023-05-10T15:45:32;18.80;82.80
55121;DHT22;41019;48.512;9.036;2023-05-10T15:47:58;18.80;80.80
55121;DHT22;41019;48.512;9.036;2023-05-10T15:50:27;18.80;79.90
55121;DHT22;41019;48.512;9.036;2023-05-10T15:52:53;18.80;81.20
55121;DHT22;41019;48.512;9.036;2023-05-10T15:55:19;18.70;80.30
55121;DHT22;41019;48.512;9.036;2023-05-10T15:57:46;18.70;80.70
55121;DHT22;41019;48.512;9.036;2023-05-10T16:00:14;18.60;80.90
55121;DHT22;41019;48.512;9.036;2023-05-10T16:02:40;18.60;80.90
55121;DHT22;41019;48.512;9.036;2023-05-10T16:05:07;18.60;79.80
55121;DHT22;41019;48.512;9.036;2023-05-10T16:07:34;18.50;80.60